Time;durP1;ratioP1;P1;durP2;ratioP2;P2;SDS_P1;SDS_P2;PMS_P1;PMS_P2;Temp;Humidity;BMP_temperature;BMP_pressure;BME280_temperature;BME280_humidity;BME280_pressure;Samples;Min_cycle;Max_cycle;Signal;HPM_P1;HPM_P2
2021/06/27 00:00:45;;;;;;;23.83;22.23;;;18.70;99.90;;;;;;5011910;28;20445;-64
2021/06/27 00:03:15;;;;;;;24.33;22.73;;;18.70;99.90;;;;;;5012132;28;20525;-64
2021/06/27 00:05:42;;;;;;;25.07;23.27;;;18.60;99.90;;;;;;5012036;28;20466;-64
2021/06/27 00:08:12;;;;;;;24.37;22.57;;;18.60;99.90;;;;;;5011924;28;20836;-62
2021/06/27 00:10:43;;;;;;;23.50;21.80;;;18.50;99.90;;;;;;5011758;28;20546;-64
2021/06/27 00:13:09;;;;;;;24.10;22.43;;;18.50;99.90;;;;;;5011760;28;20442;-62
2021/06/27 00:15:40;;;;;;;25.10;23.27;;;18.50;99.90;;;;;;5011283;28;20489;-63
2021/06/27 00:18:11;;;;;;;22.07;20.63;;;18.40;99.90;;;;;;5011936;28;20442;-64
2021/06/27 00:20:39;;;;;;;23.00;21.40;;;18.40;99.90;;;;;;5011629;28;20449;-63
2021/06/27 00:23:06;;;;;;;23.57;22.07;;;18.40;99.90;;;;;;5011452;28;20955;-63
2021/06/27 00:25:35;;;;;;;24.67;22.73;;;18.40;99.90;;;;;;5014832;28;20480;-64
2021/06/27 00:28:02;;;;;;;24.27;22.40;;;18.30;99.90;;;;;;5015876;28;20450;-64
2021/06/27 00:30:29;;;;;;;22.50;21.00;;;18.20;99.90;;;;;;5015722;28;20450;-63
2021/06/27 00:32:56;;;;;;;23.30;21.70;;;18.20;99.90;;;;;;5015098;28;20441;-64
2021/06/27 00:35:26;;;;;;;23.17;21.67;;;18.10;99.90;;;;;;5015586;28;20462;-63
2021/06/27 00:37:53;;;;;;;23.53;21.97;;;18.10;99.90;;;;;;5015174;28;20450;-64
2021/06/27 00:40:24;;;;;;;22.80;21.20;;;18.00;99.90;;;;;;5015598;28;20449;-64
2021/06/27 00:42:51;;;;;;;23.63;22.03;;;18.00;99.90;;;;;;5015194;28;20859;-64
2021/06/27 00:45:20;;;;;;;23.07;21.67;;;17.90;99.90;;;;;;5015302;28;20469;-64
2021/06/27 00:47:48;;;;;;;23.77;21.97;;;17.90;99.90;;;;;;5015255;28;20446;-63
2021/06/27 00:50:17;;;;;;;23.77;22.20;;;17.80;99.90;;;;;;5015236;28;20456;-64
2021/06/27 00:52:46;;;;;;;22.43;20.90;;;17.80;99.90;;;;;;5015034;28;20453;-63
2021/06/27 00:55:13;;;;;;;24.07;22.40;;;17.70;99.90;;;;;;5014894;28;20482;-64
2021/06/27 00:57:43;;;;;;;24.10;22.30;;;17.70;99.90;;;;;;5014893;28;20482;-63
2021/06/27 01:00:13;;;;;;;23.20;21.70;;;17.70;99.90;;;;;;5015295;28;20442;-62
2021/06/27 01:02:40;;;;;;;23.60;21.87;;;17.60;99.90;;;;;;5014804;28;20448;-63
2021/06/27 01:05:10;;;;;;;23.70;21.90;;;17.60;99.90;;;;;;5014911;28;20834;-62
2021/06/27 01:07:37;;;;;;;24.17;22.27;;;17.50;99.90;;;;;;5014792;28;20438;-62
2021/06/27 01:10:07;;;;;;;22.43;20.80;;;17.50;99.90;;;;;;5014859;28;20450;-64
2021/06/27 01:12:34;;;;;;;24.37;22.60;;;17.50;99.90;;;;;;5013752;28;20953;-62
2021/06/27 01:15:01;;;;;;;23.27;21.50;;;17.40;99.90;;;;;;5014531;28;20476;-63
2021/06/27 01:17:28;;;;;;;23.23;21.63;;;17.40;99.90;;;;;;5014757;28;20482;-63
2021/06/27 01:19:54;;;;;;;22.00;20.50;;;17.30;99.90;;;;;;5014461;28;20449;-63
2021/06/27 01:22:24;;;;;;;23.53;21.73;;;17.30;99.90;;;;;;5014636;28;20449;-62
2021/06/27 01:24:51;;;;;;;23.63;21.93;;;17.30;99.90;;;;;;5014731;28;20480;-62
2021/06/27 01:27:18;;;;;;;21.97;20.43;;;17.20;99.90;;;;;;5014655;28;20982;-62
2021/06/27 01:29:44;;;;;;;22.00;20.50;;;17.10;99.90;;;;;;5014752;28;20446;-62
2021/06/27 01:32:12;;;;;;;24.43;22.57;;;17.10;99.90;;;;;;5014506;28;20454;-63
2021/06/27 01:34:40;;;;;;;23.03;21.23;;;17.10;99.90;;;;;;5014185;28;20466;-62
2021/06/27 01:37:07;;;;;;;25.90;24.00;;;17.10;99.90;;;;;;5013996;28;20481;-64
2021/06/27 01:39:35;;;;;;;22.80;21.30;;;17.10;99.90;;;;;;5014627;28;20449;-62
2021/06/27 01:42:03;;;;;;;23.70;22.00;;;17.00;99.90;;;;;;5014154;28;20446;-62
2021/06/27 01:44:29;;;;;;;25.27;23.00;;;16.90;99.90;;;;;;5014294;28;20470;-62
2021/06/27 01:46:57;;;;;;;22.77;21.17;;;16.90;99.90;;;;;;5014145;28;20442;-62
2021/06/27 01:49:24;;;;;;;23.93;22.00;;;16.90;99.90;;;;;;5013857;28;20446;-62
2021/06/27 01:51:51;;;;;;;23.40;21.60;;;16.80;99.90;;;;;;5013944;28;20449;-63
2021/06/27 01:54:18;;;;;;;23.20;21.60;;;16.80;99.90;;;;;;5014067;28;20488;-63
2021/06/27 01:56:46;;;;;;;23.40;21.70;;;16.70;99.90;;;;;;5014178;28;20481;-63
2021/06/27 01:59:13;;;;;;;25.20;23.10;;;16.70;99.90;;;;;;5014094;28;20455;-63
2021/06/27 02:01:41;;;;;;;23.17;21.27;;;16.70;99.90;;;;;;5013925;28;20457;-63
2021/06/27 02:04:09;;;;;;;23.77;21.97;;;16.70;99.90;;;;;;5014048;28;20457;-64
2021/06/27 02:06:37;;;;;;;23.43;21.63;;;16.60;99.90;;;;;;5014002;28;20816;-63
2021/06/27 02:09:06;;;;;;;22.53;20.73;;;16.60;99.90;;;;;;5013909;28;20449;-63
2021/06/27 02:11:34;;;;;;;24.10;22.00;;;16.60;99.90;;;;;;5013769;28;20450;-62
2021/06/27 02:14:02;;;;;;;23.37;21.40;;;16.60;99.90;;;;;;5013865;28;20450;-62
2021/06/27 02:16:28;;;;;;;22.33;20.60;;;16.50;99.90;;;;;;5013557;28;20486;-63
2021/06/27 02:18:55;;;;;;;22.90;21.10;;;16.50;99.90;;;;;;5013603;28;20446;-64
2021/06/27 02:21:26;;;;;;;23.83;22.13;;;16.40;99.90;;;;;;5013622;28;20928;-64
2021/06/27 02:23:53;;;;;;;23.93;22.13;;;16.40;99.90;;;;;;5013653;28;20541;-64
2021/06/27 02:26:23;;;;;;;26.50;24.30;;;16.40;99.90;;;;;;5013599;28;20469;-64
2021/06/27 02:28:49;;;;;;;23.80;21.90;;;16.40;99.90;;;;;;5013597;28;20454;-63
2021/06/27 02:31:18;;;;;;;24.63;22.63;;;16.30;99.90;;;;;;5013506;28;20469;-64
2021/06/27 02:33:46;;;;;;;24.03;21.90;;;16.30;99.90;;;;;;5013222;28;20453;-64
2021/06/27 02:36:13;;;;;;;24.67;22.63;;;16.30;99.90;;;;;;5013072;28;20485;-63
2021/06/27 02:38:40;;;;;;;24.87;22.73;;;16.30;99.90;;;;;;5013240;28;20449;-63
2021/06/27 02:41:08;;;;;;;22.70;20.90;;;16.30;99.90;;;;;;5013097;28;20453;-63
2021/06/27 02:43:35;;;;;;;24.30;22.30;;;16.30;99.90;;;;;;5013026;28;20449;-63
2021/06/27 02:46:02;;;;;;;24.27;22.17;;;16.30;99.90;;;;;;5012879;28;20469;-63
2021/06/27 02:48:30;;;;;;;23.63;21.67;;;16.30;99.90;;;;;;5012425;28;20442;-62
2021/06/27 02:50:57;;;;;;;24.73;22.63;;;16.20;99.90;;;;;;5013155;28;20469;-64
2021/06/27 02:53:23;;;;;;;24.73;22.83;;;16.20;99.90;;;;;;5013012;28;20442;-63
2021/06/27 02:56:06;;;;;;;23.20;21.40;;;16.30;99.90;;;;;;5012698;28;20485;-64
2021/06/27 02:58:35;;;;;;;26.40;24.20;;;16.20;99.90;;;;;;5013184;28;20441;-63
2021/06/27 03:01:02;;;;;;;25.97;23.87;;;16.20;99.90;;;;;;5012806;28;20446;-63
2021/06/27 03:03:30;;;;;;;25.97;24.07;;;16.20;99.90;;;;;;5012826;28;20449;-62
2021/06/27 03:05:57;;;;;;;25.50;23.60;;;16.20;99.90;;;;;;5012840;28;20477;-64
2021/06/27 03:08:24;;;;;;;25.63;23.33;;;16.10;99.90;;;;;;5012763;28;20923;-63
2021/06/27 03:10:50;;;;;;;25.27;23.43;;;16.10;99.90;;;;;;5013042;28;20441;-62
2021/06/27 03:13:17;;;;;;;24.40;22.60;;;16.10;99.90;;;;;;5012498;28;20448;-63
2021/06/27 03:15:44;;;;;;;24.77;22.73;;;16.20;99.90;;;;;;5012810;28;21010;-64
2021/06/27 03:18:11;;;;;;;25.10;23.10;;;16.10;99.90;;;;;;5012726;28;20481;-64
2021/06/27 03:20:39;;;;;;;25.03;23.03;;;16.20;99.90;;;;;;5012803;28;20449;-64
2021/06/27 03:23:05;;;;;;;27.50;25.17;;;16.20;99.90;;;;;;5012522;28;20442;-64
2021/06/27 03:25:34;;;;;;;25.87;23.63;;;16.20;99.90;;;;;;5012591;28;20470;-64
2021/06/27 03:28:00;;;;;;;22.97;21.27;;;16.20;99.90;;;;;;5012327;28;20446;-64
2021/06/27 03:30:27;;;;;;;25.67;23.47;;;16.30;99.90;;;;;;5012322;28;20449;-64
2021/06/27 03:32:54;;;;;;;24.67;22.67;;;16.30;99.90;;;;;;5012364;28;20445;-64
2021/06/27 03:35:23;;;;;;;26.37;24.47;;;16.30;99.90;;;;;;5012166;28;20461;-64
2021/06/27 03:37:57;;;;;;;23.80;21.70;;;16.40;99.90;;;;;;5012184;28;20484;-64
2021/06/27 03:40:24;;;;;;;24.70;22.80;;;16.50;99.90;;;;;;5012573;28;20929;-63
2021/06/27 03:42:51;;;;;;;23.60;21.60;;;16.60;99.90;;;;;;5012096;28;20449;-64
2021/06/27 03:45:18;;;;;;;23.47;21.57;;;16.70;99.90;;;;;;5012214;28;20918;-64
2021/06/27 03:47:46;;;;;;;24.10;22.40;;;16.80;99.90;;;;;;5012144;28;20445;-62
2021/06/27 03:50:13;;;;;;;23.70;21.80;;;17.00;99.90;;;;;;5012066;28;20481;-64
2021/06/27 03:52:40;;;;;;;25.03;23.13;;;17.10;99.90;;;;;;5011840;28;20449;-63
2021/06/27 03:55:09;;;;;;;24.47;22.87;;;17.20;99.90;;;;;;5011933;28;20485;-64
2021/06/27 03:57:36;;;;;;;25.20;23.20;;;17.20;99.90;;;;;;5012107;28;20482;-64
2021/06/27 04:00:05;;;;;;;24.50;22.37;;;17.40;99.90;;;;;;5012046;28;20449;-63
2021/06/27 04:02:31;;;;;;;25.43;23.47;;;17.50;99.90;;;;;;5011558;28;20453;-62
2021/06/27 04:04:58;;;;;;;25.27;22.87;;;17.50;99.90;;;;;;5011898;28;20466;-64
2021/06/27 04:07:25;;;;;;;24.23;22.53;;;17.60;99.90;;;;;;5011950;28;20446;-62
2021/06/27 04:09:52;;;;;;;24.40;22.53;;;17.60;99.90;;;;;;5011906;28;20826;-64
2021/06/27 04:12:20;;;;;;;23.50;21.90;;;17.80;99.90;;;;;;5011653;28;20446;-63
2021/06/27 04:14:46;;;;;;;24.87;23.00;;;17.80;99.90;;;;;;5011898;28;20472;-63
2021/06/27 04:17:17;;;;;;;23.10;21.40;;;18.00;99.90;;;;;;5011678;28;20484;-63
2021/06/27 04:19:44;;;;;;;24.43;22.60;;;18.10;99.90;;;;;;5011910;28;20457;-64
2021/06/27 04:22:11;;;;;;;22.33;20.70;;;18.30;99.90;;;;;;5011566;28;20442;-64
2021/06/27 04:24:38;;;;;;;22.70;21.30;;;18.30;99.90;;;;;;5011637;28;20458;-64
2021/06/27 04:27:05;;;;;;;22.57;21.10;;;18.40;99.90;;;;;;5011767;28;20449;-63
2021/06/27 04:29:34;;;;;;;22.23;20.70;;;18.60;99.90;;;;;;5011826;28;20445;-63
2021/06/27 04:32:00;;;;;;;23.40;21.73;;;18.60;99.90;;;;;;5011598;28;20450;-64
2021/06/27 04:34:27;;;;;;;24.73;22.70;;;18.70;99.90;;;;;;5011628;28;20462;-62
2021/06/27 04:36:54;;;;;;;23.13;21.57;;;18.80;99.90;;;;;;5011606;28;21005;-62
2021/06/27 04:39:20;;;;;;;22.77;21.20;;;18.80;99.90;;;;;;5011682;28;20473;-63
2021/06/27 04:41:48;;;;;;;23.03;21.60;;;18.90;99.90;;;;;;5011597;28;20450;-63
2021/06/27 04:44:15;;;;;;;22.80;21.33;;;19.00;99.90;;;;;;5011510;28;20450;-62
2021/06/27 04:46:43;;;;;;;21.83;20.43;;;19.10;99.90;;;;;;5011691;28;20446;-63
2021/06/27 04:49:12;;;;;;;23.07;21.47;;;19.20;99.90;;;;;;5011585;28;20442;-62
2021/06/27 04:51:40;;;;;;;22.20;20.70;;;19.20;99.90;;;;;;5011352;28;20842;-64
2021/06/27 04:54:07;;;;;;;23.23;21.83;;;19.30;99.90;;;;;;5011596;28;20442;-62
2021/06/27 04:56:34;;;;;;;22.10;20.60;;;19.30;99.90;;;;;;5011192;28;20442;-62
2021/06/27 04:59:01;;;;;;;24.30;22.60;;;19.30;99.90;;;;;;5010612;28;20484;-65
2021/06/27 05:01:27;;;;;;;22.10;20.60;;;19.50;99.90;;;;;;5010820;28;20442;-64
2021/06/27 05:03:56;;;;;;;21.33;20.03;;;19.60;99.90;;;;;;5010916;28;20449;-65
2021/06/27 05:06:23;;;;;;;24.63;22.97;;;19.70;99.90;;;;;;5011269;28;20454;-65
2021/06/27 05:08:49;;;;;;;23.33;21.83;;;19.80;99.90;;;;;;5011299;28;20469;-66
2021/06/27 05:11:16;;;;;;;21.80;20.50;;;19.80;99.90;;;;;;5014662;28;20819;-65
2021/06/27 05:13:43;;;;;;;23.50;21.93;;;19.90;99.90;;;;;;5015532;28;20818;-66
2021/06/27 05:16:09;;;;;;;22.60;21.23;;;20.00;99.90;;;;;;5015692;28;20469;-66
2021/06/27 05:18:36;;;;;;;22.77;21.33;;;20.00;99.90;;;;;;5015517;28;20477;-66
2021/06/27 05:21:04;;;;;;;22.63;21.27;;;20.00;99.90;;;;;;5014825;28;20944;-66
2021/06/27 05:23:31;;;;;;;22.40;20.90;;;20.20;99.90;;;;;;5015050;28;20453;-65
2021/06/27 05:25:58;;;;;;;22.03;20.73;;;20.10;99.90;;;;;;5014594;28;20467;-66
2021/06/27 05:28:27;;;;;;;21.33;20.13;;;20.10;99.90;;;;;;5014791;28;20449;-66
2021/06/27 05:30:54;;;;;;;21.23;19.90;;;20.10;99.90;;;;;;5014692;28;20866;-65
2021/06/27 05:33:20;;;;;;;21.90;20.47;;;20.20;99.90;;;;;;5014322;28;20448;-65
2021/06/27 05:35:47;;;;;;;21.27;19.77;;;20.20;99.90;;;;;;5013776;28;20477;-65
2021/06/27 05:38:15;;;;;;;19.80;18.60;;;20.30;99.90;;;;;;5015044;28;21177;-65
2021/06/27 05:40:42;;;;;;;21.07;19.80;;;20.40;99.90;;;;;;5014430;28;20454;-65
2021/06/27 05:43:09;;;;;;;20.53;19.30;;;20.40;99.90;;;;;;5014402;28;20469;-65
2021/06/27 05:45:35;;;;;;;21.60;20.03;;;20.50;99.90;;;;;;5013960;28;20473;-65
2021/06/27 05:48:02;;;;;;;21.70;20.40;;;20.60;99.90;;;;;;5014404;28;20438;-65
2021/06/27 05:50:29;;;;;;;21.53;20.30;;;20.60;99.90;;;;;;5014427;28;20477;-65
2021/06/27 05:52:55;;;;;;;20.37;19.17;;;20.80;99.90;;;;;;5014114;28;20449;-65
2021/06/27 05:55:23;;;;;;;21.97;20.67;;;20.80;99.90;;;;;;5014048;28;20478;-65
2021/06/27 05:57:50;;;;;;;21.60;20.30;;;21.00;99.90;;;;;;5014091;28;20489;-65
2021/06/27 06:00:19;;;;;;;22.20;20.60;;;21.20;99.90;;;;;;5014113;28;20461;-65
2021/06/27 06:02:46;;;;;;;21.10;19.70;;;21.30;99.90;;;;;;5013857;28;20508;-64
2021/06/27 06:05:12;;;;;;;20.73;19.53;;;21.50;99.90;;;;;;5013791;28;20474;-65
2021/06/27 06:07:39;;;;;;;21.07;19.57;;;21.60;99.90;;;;;;5013965;28;20924;-65
2021/06/27 06:10:07;;;;;;;19.70;18.60;;;21.70;99.90;;;;;;5013872;28;20446;-65
2021/06/27 06:12:36;;;;;;;19.87;18.77;;;21.80;99.90;;;;;;5013579;28;20452;-65
2021/06/27 06:15:02;;;;;;;20.13;19.03;;;22.00;99.90;;;;;;5013665;28;20465;-65
2021/06/27 06:17:29;;;;;;;22.70;21.40;;;22.20;99.90;;;;;;5013477;28;20485;-65
2021/06/27 06:19:56;;;;;;;19.97;18.87;;;22.40;99.90;;;;;;5013825;28;20456;-65
2021/06/27 06:22:23;;;;;;;19.10;18.10;;;22.50;99.90;;;;;;5011944;28;20450;-64
2021/06/27 06:24:49;;;;;;;19.70;18.63;;;22.60;99.90;;;;;;5013784;28;20466;-64
2021/06/27 06:27:16;;;;;;;21.00;19.77;;;22.90;99.90;;;;;;5013677;28;20928;-65
2021/06/27 06:29:44;;;;;;;20.00;18.80;;;23.10;99.90;;;;;;5013618;28;20449;-65
2021/06/27 06:32:11;;;;;;;21.67;20.47;;;23.30;99.90;;;;;;5013320;28;20469;-65
2021/06/27 06:34:38;;;;;;;21.43;20.03;;;23.50;99.90;;;;;;5013303;28;20466;-65
2021/06/27 06:37:06;;;;;;;19.90;18.90;;;23.60;99.90;;;;;;5013456;28;20935;-65
2021/06/27 06:39:32;;;;;;;20.50;19.40;;;23.70;99.90;;;;;;5013234;28;21079;-65
2021/06/27 06:41:59;;;;;;;20.90;19.80;;;23.90;99.90;;;;;;5011177;28;20447;-64
2021/06/27 06:44:26;;;;;;;19.77;18.77;;;23.90;99.90;;;;;;5012565;28;20838;-64
2021/06/27 06:46:54;;;;;;;20.43;19.33;;;23.90;99.90;;;;;;5012764;28;20461;-65
2021/06/27 06:49:21;;;;;;;21.53;20.07;;;23.90;99.90;;;;;;5012643;28;20446;-64
2021/06/27 06:51:47;;;;;;;21.00;19.90;;;24.00;99.90;;;;;;5012431;28;20806;-64
2021/06/27 06:54:14;;;;;;;19.73;18.73;;;23.90;99.90;;;;;;5012381;28;20461;-65
2021/06/27 06:56:41;;;;;;;20.73;19.53;;;24.00;99.90;;;;;;5012668;28;20454;-66
2021/06/27 06:59:07;;;;;;;21.77;20.70;;;24.10;99.90;;;;;;5012604;28;20482;-65
2021/06/27 07:01:34;;;;;;;22.20;20.60;;;24.10;99.90;;;;;;5012588;28;20453;-64
2021/06/27 07:04:02;;;;;;;22.50;21.10;;;24.10;99.90;;;;;;5012574;28;20446;-65
2021/06/27 07:06:29;;;;;;;20.83;19.73;;;24.10;99.90;;;;;;5012881;28;20441;-65
2021/06/27 07:08:56;;;;;;;20.03;19.03;;;24.00;99.90;;;;;;5012680;28;20819;-66
2021/06/27 07:11:22;;;;;;;21.43;20.23;;;24.00;99.90;;;;;;5012605;28;20454;-65
2021/06/27 07:13:49;;;;;;;20.37;19.20;;;24.00;99.90;;;;;;5012591;28;20457;-66
2021/06/27 07:16:16;;;;;;;20.50;19.50;;;23.90;99.90;;;;;;5012300;28;20466;-66
2021/06/27 07:18:42;;;;;;;20.80;19.60;;;24.00;99.90;;;;;;5012260;28;20482;-65
2021/06/27 07:21:11;;;;;;;20.27;18.97;;;24.00;99.90;;;;;;5012610;28;20450;-65
2021/06/27 07:23:37;;;;;;;19.70;18.70;;;24.00;99.90;;;;;;5012082;28;20545;-65
2021/06/27 07:26:04;;;;;;;20.37;19.10;;;24.10;99.90;;;;;;5011568;28;20477;-65
2021/06/27 07:28:31;;;;;;;20.63;19.53;;;24.20;99.90;;;;;;5011321;28;20446;-65
2021/06/27 07:30:59;;;;;;;21.30;20.23;;;24.20;99.70;;;;;;5012439;28;20788;-65
2021/06/27 07:33:26;;;;;;;21.33;20.07;;;24.20;99.90;;;;;;5011711;28;20453;-67
2021/06/27 07:35:52;;;;;;;20.73;19.63;;;24.20;99.90;;;;;;5011662;28;20473;-66
2021/06/27 07:38:21;;;;;;;21.70;20.60;;;24.30;99.90;;;;;;5012250;28;20507;-66
2021/06/27 07:40:47;;;;;;;19.90;18.90;;;24.50;99.90;;;;;;5012308;28;20446;-66
2021/06/27 07:43:14;;;;;;;20.20;19.03;;;24.60;99.90;;;;;;5012086;28;20439;-66
2021/06/27 07:45:42;;;;;;;20.40;19.33;;;24.70;99.90;;;;;;5012498;28;20466;-66
2021/06/27 07:48:10;;;;;;;21.70;20.50;;;24.90;99.90;;;;;;5012412;28;20450;-66
2021/06/27 07:50:37;;;;;;;20.10;19.10;;;25.00;99.50;;;;;;5012603;28;21003;-65
2021/06/27 07:53:03;;;;;;;21.37;20.00;;;25.10;98.70;;;;;;5012573;28;20863;-65
2021/06/27 07:55:32;;;;;;;20.77;19.53;;;25.30;98.60;;;;;;5012361;28;20480;-65
2021/06/27 07:57:58;;;;;;;20.50;19.50;;;25.60;98.20;;;;;;5012121;28;20489;-66
2021/06/27 08:00:25;;;;;;;20.10;19.00;;;25.60;97.00;;;;;;5012365;28;20450;-66
2021/06/27 08:02:52;;;;;;;21.10;19.93;;;25.60;96.80;;;;;;5012538;28;21234;-65
2021/06/27 08:05:19;;;;;;;20.50;19.50;;;25.90;96.80;;;;;;5012537;28;20845;-66
2021/06/27 08:07:45;;;;;;;20.30;19.27;;;26.00;96.50;;;;;;5012385;28;20449;-65
2021/06/27 08:10:12;;;;;;;19.30;18.23;;;26.20;96.50;;;;;;5012583;28;20446;-65
2021/06/27 08:12:41;;;;;;;20.07;19.17;;;26.30;95.90;;;;;;5011808;28;20434;-65
2021/06/27 08:15:17;;;;;;;21.03;19.83;;;26.50;95.20;;;;;;5011897;28;20520;-66
2021/06/27 08:17:44;;;;;;;20.00;18.73;;;26.70;94.70;;;;;;5011913;28;20533;-66
2021/06/27 08:20:12;;;;;;;20.07;19.17;;;27.00;92.30;;;;;;5012297;28;20449;-66
2021/06/27 08:22:38;;;;;;;20.77;19.67;;;27.10;90.60;;;;;;5011872;28;20951;-64
2021/06/27 08:25:07;;;;;;;20.90;19.80;;;27.20;89.70;;;;;;5012025;28;20987;-65
2021/06/27 08:27:33;;;;;;;20.97;19.97;;;27.40;87.60;;;;;;5012024;28;20452;-65
2021/06/27 08:30:03;;;;;;;21.00;19.90;;;27.70;85.20;;;;;;5011750;28;20438;-65
2021/06/27 08:32:31;;;;;;;19.20;18.30;;;28.00;83.90;;;;;;5011534;28;20544;-65
2021/06/27 08:34:57;;;;;;;20.20;19.23;;;28.10;81.20;;;;;;5011727;28;20469;-65
2021/06/27 08:37:24;;;;;;;20.63;19.63;;;28.30;80.50;;;;;;5011659;28;20496;-65
2021/06/27 08:39:51;;;;;;;20.63;19.63;;;28.50;76.70;;;;;;5011537;28;20482;-66
2021/06/27 08:42:20;;;;;;;21.20;20.17;;;28.70;75.00;;;;;;5011553;28;20487;-65
2021/06/27 08:44:47;;;;;;;19.67;18.77;;;28.90;73.30;;;;;;5011595;28;20556;-65
2021/06/27 08:47:18;;;;;;;19.23;18.43;;;29.10;71.20;;;;;;5015444;28;20445;-65
2021/06/27 08:49:47;;;;;;;18.73;17.90;;;29.00;69.80;;;;;;5015337;28;20438;-65
2021/06/27 08:52:16;;;;;;;19.07;18.07;;;29.00;69.40;;;;;;5015160;28;20503;-64
2021/06/27 08:54:43;;;;;;;19.50;18.70;;;29.10;68.50;;;;;;5014830;28;20481;-65
2021/06/27 08:57:11;;;;;;;19.13;18.23;;;29.20;66.50;;;;;;5014741;28;20448;-64
2021/06/27 08:59:37;;;;;;;21.13;20.03;;;29.50;66.20;;;;;;5015162;28;21084;-65
2021/06/27 09:02:05;;;;;;;18.77;17.97;;;29.50;63.80;;;;;;5014785;28;20452;-64
2021/06/27 09:04:34;;;;;;;19.47;18.57;;;29.60;62.90;;;;;;5015103;28;20469;-65
2021/06/27 09:07:25;;;;;;;18.43;17.73;;;29.70;61.70;;;;;;5014992;28;20450;-64
2021/06/27 09:09:52;;;;;;;18.40;17.60;;;29.80;60.50;;;;;;5015036;28;20978;-65
2021/06/27 09:12:19;;;;;;;18.87;18.07;;;29.60;59.60;;;;;;5014685;28;20449;-64
2021/06/27 09:14:47;;;;;;;20.30;19.20;;;29.50;59.50;;;;;;5014951;28;20497;-64
2021/06/27 09:17:15;;;;;;;20.20;19.30;;;29.70;59.80;;;;;;5014964;28;20468;-64
2021/06/27 09:19:57;;;;;;;19.90;19.00;;;29.80;60.50;;;;;;5014875;28;20492;-64
2021/06/27 09:22:26;;;;;;;19.10;18.10;;;29.90;60.70;;;;;;5014615;28;20503;-65
2021/06/27 09:24:53;;;;;;;19.40;18.50;;;30.00;59.70;;;;;;5014446;28;20564;-65
2021/06/27 09:27:23;;;;;;;18.57;17.77;;;29.90;58.20;;;;;;5014551;28;20788;-64
2021/06/27 09:29:50;;;;;;;19.43;18.43;;;29.90;58.50;;;;;;5014741;28;20592;-64
2021/06/27 09:32:18;;;;;;;20.30;19.40;;;30.10;58.50;;;;;;5014329;28;20449;-63
2021/06/27 09:34:45;;;;;;;18.80;17.80;;;30.20;58.10;;;;;;5014660;28;20461;-64
2021/06/27 09:37:14;;;;;;;19.00;18.20;;;30.40;57.60;;;;;;5014451;28;20448;-64
2021/06/27 09:39:54;;;;;;;19.23;18.43;;;30.40;57.20;;;;;;5014387;28;21029;-65
2021/06/27 09:42:21;;;;;;;19.10;18.30;;;30.60;57.00;;;;;;5014439;28;20511;-65
2021/06/27 09:45:00;;;;;;;20.03;19.10;;;30.40;56.10;;;;;;5014291;28;20806;-64
2021/06/27 09:47:28;;;;;;;20.50;19.40;;;30.30;55.80;;;;;;5014419;28;20449;-66
2021/06/27 09:49:55;;;;;;;19.47;18.67;;;30.20;55.10;;;;;;5014244;28;20957;-65
2021/06/27 09:52:37;;;;;;;19.50;18.70;;;30.30;55.90;;;;;;5014153;28;20450;-64
2021/06/27 09:55:08;;;;;;;19.93;19.03;;;30.30;55.70;;;;;;5013940;28;20482;-65
2021/06/27 09:57:35;;;;;;;19.27;18.47;;;30.40;55.90;;;;;;5014227;28;20805;-64
2021/06/27 10:00:03;;;;;;;19.77;18.93;;;30.40;55.40;;;;;;5014007;28;20482;-65
2021/06/27 10:02:30;;;;;;;19.07;18.17;;;30.20;54.90;;;;;;5013930;28;20449;-64
2021/06/27 10:04:56;;;;;;;20.37;19.47;;;30.20;54.60;;;;;;5013947;28;20469;-65
2021/06/27 10:07:38;;;;;;;19.50;18.70;;;30.40;54.20;;;;;;5014082;28;20445;-65
2021/06/27 10:10:18;;;;;;;20.50;19.60;;;30.40;53.90;;;;;;5014027;28;20433;-65
2021/06/27 10:12:45;;;;;;;19.80;18.90;;;30.30;53.10;;;;;;5013677;28;20810;-64
2021/06/27 10:15:14;;;;;;;20.50;19.50;;;30.30;53.50;;;;;;5013599;28;20470;-65
2021/06/27 10:17:42;;;;;;;20.67;19.77;;;30.30;53.90;;;;;;5013661;28;20457;-64
2021/06/27 10:20:11;;;;;;;20.10;19.20;;;30.40;53.40;;;;;;5013730;28;20484;-64
2021/06/27 10:22:39;;;;;;;20.63;19.63;;;30.50;52.50;;;;;;5013681;28;20446;-64
2021/06/27 10:25:10;;;;;;;19.10;18.30;;;30.60;52.80;;;;;;5013690;28;20466;-64
2021/06/27 10:27:37;;;;;;;19.60;18.77;;;30.80;52.60;;;;;;5013573;28;20442;-64
2021/06/27 10:30:06;;;;;;;18.83;18.03;;;30.90;51.90;;;;;;5013462;28;20813;-64
2021/06/27 10:32:38;;;;;;;19.07;18.27;;;30.90;51.90;;;;;;5013329;28;20453;-64
2021/06/27 10:35:08;;;;;;;19.67;18.77;;;31.10;51.10;;;;;;5013208;28;20993;-65
2021/06/27 10:37:38;;;;;;;19.43;18.53;;;31.10;51.00;;;;;;5013473;28;20457;-64
2021/06/27 10:40:09;;;;;;;18.80;18.10;;;31.20;51.30;;;;;;5013256;28;20473;-66
2021/06/27 10:42:56;;;;;;;19.83;18.93;;;31.00;51.60;;;;;;5012574;28;20946;-66
2021/06/27 10:45:25;;;;;;;18.70;18.00;;;31.20;52.00;;;;;;5004856;28;20461;-66
2021/06/27 10:47:52;;;;;;;19.50;18.70;;;31.40;51.90;;;;;;5012422;28;20448;-66
2021/06/27 10:50:21;;;;;;;20.57;19.57;;;31.30;51.30;;;;;;5012698;28;20453;-66
2021/06/27 10:53:02;;;;;;;19.57;18.67;;;31.70;50.80;;;;;;5012892;28;20552;-66
2021/06/27 10:55:32;;;;;;;18.73;18.03;;;32.10;50.50;;;;;;5012414;28;20473;-63
2021/06/27 10:58:02;;;;;;;19.03;18.13;;;32.30;49.60;;;;;;5012840;28;20465;-66
2021/06/27 11:00:49;;;;;;;19.67;18.87;;;32.60;49.10;;;;;;5012815;28;20523;-66
2021/06/27 11:03:30;;;;;;;19.47;18.60;;;32.70;46.80;;;;;;5012525;28;20507;-64
2021/06/27 11:05:58;;;;;;;19.50;18.60;;;32.90;47.00;;;;;;5012695;28;20468;-64
2021/06/27 11:08:39;;;;;;;18.53;17.83;;;32.90;46.00;;;;;;5011761;28;20966;-64
2021/06/27 11:11:19;;;;;;;18.50;17.80;;;32.40;46.30;;;;;;5012538;28;20445;-64
2021/06/27 11:14:23;;;;;;;19.17;18.40;;;32.30;46.40;;;;;;5012531;28;20453;-66
2021/06/27 11:16:59;;;;;;;19.80;19.00;;;32.30;46.40;;;;;;5012479;28;20931;-66
2021/06/27 11:19:29;;;;;;;19.80;19.00;;;32.40;46.50;;;;;;5012330;28;20488;-66
2021/06/27 11:22:19;;;;;;;19.67;18.87;;;32.70;46.70;;;;;;5011987;28;20457;-66
2021/06/27 11:24:47;;;;;;;19.93;19.13;;;33.10;46.40;;;;;;5012309;28;20477;-66
2021/06/27 11:27:31;;;;;;;18.67;17.97;;;33.90;44.90;;;;;;5012685;28;20217;-67
2021/06/27 11:29:58;;;;;;;19.47;18.67;;;33.50;44.80;;;;;;5011882;28;20445;-64
2021/06/27 11:32:43;;;;;;;20.30;19.50;;;33.80;44.80;;;;;;5012132;28;20446;-66
2021/06/27 11:35:28;;;;;;;19.75;18.98;;;35.30;43.60;;;;;;5012347;28;20223;-64
2021/06/27 11:37:55;;;;;;;19.45;18.58;;;36.40;41.60;;;;;;5011853;28;20283;-65
2021/06/27 11:40:45;;;;;;;18.65;17.95;;;37.70;38.80;;;;;;5012229;28;20235;-65
2021/06/27 11:43:11;;;;;;;19.00;18.30;;;39.50;37.00;;;;;;5011563;28;20203;-65
2021/06/27 11:45:47;;;;;;;18.92;18.23;;;41.70;33.20;;;;;;5011470;28;20210;-65
2021/06/27 11:48:13;;;;;;;20.40;19.60;;;43.10;31.20;;;;;;5011955;28;20199;-65
2021/06/27 11:50:47;;;;;;;19.58;18.88;;;44.30;29.30;;;;;;5012147;28;20214;-64
2021/06/27 11:53:14;;;;;;;20.05;19.35;;;45.10;27.90;;;;;;5011628;28;20210;-65
2021/06/27 11:55:43;;;;;;;18.88;18.25;;;45.50;27.00;;;;;;5012016;28;20230;-64
2021/06/27 11:58:17;;;;;;;18.63;18.02;;;46.60;26.40;;;;;;5011422;28;20225;-64
2021/06/27 12:00:46;;;;;;;19.40;18.70;;;48.40;25.50;;;;;;5003960;28;20241;-65
2021/06/27 12:03:15;;;;;;;19.00;18.40;;;50.40;24.00;;;;;;5011968;28;20213;-64
2021/06/27 12:05:51;;;;;;;19.25;18.65;;;51.40;22.30;;;;;;5011748;28;20226;-64
2021/06/27 12:08:21;;;;;;;18.55;17.95;;;52.20;22.10;;;;;;5011822;28;20206;-65
2021/06/27 12:10:50;;;;;;;19.15;18.55;;;52.90;21.30;;;;;;5011660;28;20203;-65
2021/06/27 12:13:17;;;;;;;19.38;18.77;;;53.20;20.50;;;;;;5011208;28;20199;-65
2021/06/27 12:15:47;;;;;;;18.80;18.20;;;54.10;20.50;;;;;;5011484;28;20589;-65
2021/06/27 12:18:17;;;;;;;19.23;18.63;;;53.80;20.10;;;;;;5011538;28;20214;-64
2021/06/27 12:20:47;;;;;;;19.50;18.90;;;54.00;19.90;;;;;;5010533;28;20215;-64
2021/06/27 12:23:16;;;;;;;18.73;18.13;;;54.20;20.10;;;;;;5011546;28;20209;-64
2021/06/27 12:25:45;;;;;;;19.23;18.55;;;54.10;19.90;;;;;;5011097;28;20221;-64
2021/06/27 12:28:15;;;;;;;18.42;17.83;;;54.40;19.70;;;;;;5011580;28;20218;-65
2021/06/27 12:30:48;;;;;;;19.60;19.00;;;55.10;19.40;;;;;;5011187;28;20205;-64
2021/06/27 12:33:18;;;;;;;18.33;17.73;;;56.50;19.00;;;;;;5011375;28;20213;-64
2021/06/27 12:35:49;;;;;;;19.30;18.70;;;56.30;18.20;;;;;;5011549;28;20598;-65